South Pomfret, VT (05067)

3:04 PM EDT on October 25, 2014 (GMT -0400)
Suicide Six Ski Area | Change Station
CLOSE
Current Station
Personal Weather Station
Location: South Pomfret, VT
Elevation: 850 ft
Nearby Weather Stations

Elev 850 ft 43.68 °N, 72.56 °W | Updated 3 seconds ago

Partly Cloudy
Partly Cloudy
61.4 °F
Feels Like 61.4 °F
N
2.0
Wind Variable Wind from WNW
Gusts 9.0 mph

Today
High -- | Low -- °F
--% Chance of Precip.
Yesterday
High -- | Low -- °F
Precip. -- in
7:16 AM 5:50 PM
Waxing Crescent, 4% visible
Pressure 29.58 in
Visibility 10.0 miles
Clouds Clear
Dew Point 46 °F
Humidity 57%
Rainfall 0.00 in
Snow Depth Not available.
UV 2 out of 12
Pollen .20 out of 12
Air Quality Not available.
Flu Activity Not available.
METAR KLEB 251853Z 27010KT 10SM CLR 17/04 A2958 RMK AO2 SLP015 T01670039

More Conditions Fewer Conditions

Pressure 29.58 in
Visibility 10.0 miles
Clouds Clear
Dew Point 46 °F
Humidity 57%
Rainfall 0.00 in
Snow Depth Not available.
UV 2 out of 12
Pollen .20 out of 12
Air Quality Not available.
Flu Activity Not available.
METAR KLEB 251853Z 27010KT 10SM CLR 17/04 A2958 RMK AO2 SLP015 T01670039

More Conditions Fewer Conditions

10-Day Weather Forecast

Almanac

Astronomy

Oct. 25, 2014 Rise Set
Actual Time 7:16 AM EDT 5:50 PM EDT
Civil Twilight 6:47 AM EDT 6:20 PM EDT
Nautical Twilight 6:13 AM EDT 6:53 PM EDT
Astronomical Twilight 5:40 AM EDT 7:27 PM EDT
Moon 8:55 AM EDT 7:08 PM EDT
Length of Visible Light 11h 32m
Length of Day
10h 33m
Tomorrow will be 2m 47s shorter.
Waxing Crescent, 4% of the Moon is Illuminated
Today
Waxing Crescent
Oct 30
First Quarter
Nov 6
Full
Nov 14
Last Quarter
Nov 22
New

Today's Extremes

State Highs State Lows

Community

WunderPhotos

Upload Photos

1,764,958 photos uploaded!

Nearby

Snow Depth

Station Depth Elevation
No new snow has been reported.

Earthquake Activity

City Distance Mag. Time & Date
No recent earthquake activity has been reported nearby.
Minimum magnitude displayed is 2.5.

Coastal Water Temperatures

Place Temperature
No Stations Reporting

Nearby Weather Stations